sensor_id;sensor_type;location;lat;lon;timestamp;pressure;altitude;pressure_sealevel;temperature;humidity
75298;BME280;63896;45.990;18.688;2023-11-21T00:02:25;100334.06;;;5.89;100.00
75298;BME280;63896;45.990;18.688;2023-11-21T00:05:29;100335.88;;;5.88;100.00
75298;BME280;63896;45.990;18.688;2023-11-21T00:08:32;100332.25;;;5.89;100.00
75298;BME280;63896;45.990;18.688;2023-11-21T00:11:35;100338.84;;;6.00;100.00
75298;BME280;63896;45.990;18.688;2023-11-21T00:14:38;100339.41;;;5.95;100.00
75298;BME280;63896;45.990;18.688;2023-11-21T00:17:43;100335.66;;;6.04;100.00
75298;BME280;63896;45.990;18.688;2023-11-21T00:20:46;100335.56;;;5.83;100.00
75298;BME280;63896;45.990;18.688;2023-11-21T00:23:48;100333.31;;;5.80;100.00
75298;BME280;63896;45.990;18.688;2023-11-21T00:26:51;100342.41;;;5.78;100.00
75298;BME280;63896;45.990;18.688;2023-11-21T00:29:55;100335.06;;;5.73;100.00
75298;BME280;63896;45.990;18.688;2023-11-21T00:32:58;100354.31;;;5.73;100.00
75298;BME280;63896;45.990;18.688;2023-11-21T00:36:01;100341.69;;;5.69;100.00
75298;BME280;63896;45.990;18.688;2023-11-21T00:39:04;100347.94;;;5.68;100.00
75298;BME280;63896;45.990;18.688;2023-11-21T00:42:09;100331.16;;;5.69;100.00
75298;BME280;63896;45.990;18.688;2023-11-21T00:45:13;100327.34;;;5.71;100.00
75298;BME280;63896;45.990;18.688;2023-11-21T00:48:15;100326.34;;;5.72;100.00
75298;BME280;63896;45.990;18.688;2023-11-21T00:51:18;100325.41;;;5.80;100.00
75298;BME280;63896;45.990;18.688;2023-11-21T00:54:21;100321.78;;;5.81;100.00
75298;BME280;63896;45.990;18.688;2023-11-21T00:57:23;100323.16;;;5.77;100.00
75298;BME280;63896;45.990;18.688;2023-11-21T01:00:26;100329.19;;;5.71;100.00
75298;BME280;63896;45.990;18.688;2023-11-21T01:03:30;100328.81;;;5.74;100.00
75298;BME280;63896;45.990;18.688;2023-11-21T01:06:33;100334.44;;;5.71;100.00
75298;BME280;63896;45.990;18.688;2023-11-21T01:09:36;100320.09;;;5.73;100.00
75298;BME280;63896;45.990;18.688;2023-11-21T01:12:39;100305.38;;;5.79;100.00
75298;BME280;63896;45.990;18.688;2023-11-21T01:15:42;100309.88;;;5.85;100.00
75298;BME280;63896;45.990;18.688;2023-11-21T01:18:45;100309.53;;;5.88;100.00
75298;BME280;63896;45.990;18.688;2023-11-21T01:21:47;100305.97;;;5.96;100.00
75298;BME280;63896;45.990;18.688;2023-11-21T01:24:50;100291.88;;;6.03;100.00
75298;BME280;63896;45.990;18.688;2023-11-21T01:27:53;100278.72;;;6.03;100.00
75298;BME280;63896;45.990;18.688;2023-11-21T01:30:55;100284.41;;;6.07;100.00
75298;BME280;63896;45.990;18.688;2023-11-21T01:33:59;100279.84;;;6.15;100.00
75298;BME280;63896;45.990;18.688;2023-11-21T01:37:03;100274.59;;;6.15;100.00
75298;BME280;63896;45.990;18.688;2023-11-21T01:40:08;100280.94;;;6.21;100.00
75298;BME280;63896;45.990;18.688;2023-11-21T01:43:13;100282.41;;;6.30;100.00
75298;BME280;63896;45.990;18.688;2023-11-21T01:46:16;100278.78;;;6.31;100.00
75298;BME280;63896;45.990;18.688;2023-11-21T01:49:19;100277.22;;;6.37;100.00
75298;BME280;63896;45.990;18.688;2023-11-21T01:52:23;100272.13;;;6.35;100.00
75298;BME280;63896;45.990;18.688;2023-11-21T01:55:29;100270.56;;;6.41;100.00
75298;BME280;63896;45.990;18.688;2023-11-21T01:58:32;100265.22;;;6.34;100.00
75298;BME280;63896;45.990;18.688;2023-11-21T02:01:35;100258.97;;;6.35;100.00
75298;BME280;63896;45.990;18.688;2023-11-21T02:04:38;100252.41;;;6.25;100.00
75298;BME280;63896;45.990;18.688;2023-11-21T02:07:41;100245.22;;;6.18;100.00
75298;BME280;63896;45.990;18.688;2023-11-21T02:10:47;100251.75;;;6.22;100.00
75298;BME280;63896;45.990;18.688;2023-11-21T02:13:50;100255.09;;;6.10;100.00
75298;BME280;63896;45.990;18.688;2023-11-21T02:16:57;100251.66;;;6.09;100.00
75298;BME280;63896;45.990;18.688;2023-11-21T02:20:00;100250.19;;;6.07;100.00
75298;BME280;63896;45.990;18.688;2023-11-21T02:23:02;100250.31;;;5.99;100.00
75298;BME280;63896;45.990;18.688;2023-11-21T02:26:06;100243.44;;;5.98;100.00
75298;BME280;63896;45.990;18.688;2023-11-21T02:29:08;100241.97;;;5.95;100.00
75298;BME280;63896;45.990;18.688;2023-11-21T02:32:15;100237.91;;;5.93;100.00
75298;BME280;63896;45.990;18.688;2023-11-21T02:35:20;100237.34;;;5.97;100.00
75298;BME280;63896;45.990;18.688;2023-11-21T02:38:23;100238.78;;;6.00;100.00
75298;BME280;63896;45.990;18.688;2023-11-21T02:41:26;100233.81;;;6.11;100.00
75298;BME280;63896;45.990;18.688;2023-11-21T02:44:28;100228.00;;;6.16;100.00
75298;BME280;63896;45.990;18.688;2023-11-21T02:47:31;100230.25;;;6.19;100.00
75298;BME280;63896;45.990;18.688;2023-11-21T02:50:34;100230.19;;;6.12;100.00
75298;BME280;63896;45.990;18.688;2023-11-21T02:53:37;100220.28;;;6.14;100.00
75298;BME280;63896;45.990;18.688;2023-11-21T02:56:41;100227.03;;;6.23;100.00
75298;BME280;63896;45.990;18.688;2023-11-21T02:59:44;100221.34;;;6.20;100.00
75298;BME280;63896;45.990;18.688;2023-11-21T03:02:47;100228.44;;;6.19;100.00
75298;BME280;63896;45.990;18.688;2023-11-21T03:05:50;100224.72;;;6.35;100.00
75298;BME280;63896;45.990;18.688;2023-11-21T03:08:53;100225.13;;;6.39;100.00
75298;BME280;63896;45.990;18.688;2023-11-21T03:11:56;100219.31;;;6.43;100.00
75298;BME280;63896;45.990;18.688;2023-11-21T03:14:58;100225.53;;;6.36;100.00
75298;BME280;63896;45.990;18.688;2023-11-21T03:18:02;100221.50;;;6.40;100.00
75298;BME280;63896;45.990;18.688;2023-11-21T03:21:06;100215.06;;;6.49;100.00
75298;BME280;63896;45.990;18.688;2023-11-21T03:24:11;100229.72;;;6.51;100.00
75298;BME280;63896;45.990;18.688;2023-11-21T03:27:14;100226.50;;;6.56;100.00
75298;BME280;63896;45.990;18.688;2023-11-21T03:30:16;100223.91;;;6.62;100.00
75298;BME280;63896;45.990;18.688;2023-11-21T03:33:19;100221.50;;;6.67;100.00
75298;BME280;63896;45.990;18.688;2023-11-21T03:36:22;100231.66;;;6.70;100.00
75298;BME280;63896;45.990;18.688;2023-11-21T03:39:28;100233.09;;;6.73;100.00
75298;BME280;63896;45.990;18.688;2023-11-21T03:42:32;100228.06;;;6.78;100.00
75298;BME280;63896;45.990;18.688;2023-11-21T03:45:34;100242.28;;;6.84;100.00
75298;BME280;63896;45.990;18.688;2023-11-21T03:48:37;100242.88;;;6.79;100.00
75298;BME280;63896;45.990;18.688;2023-11-21T03:51:40;100243.66;;;6.80;100.00
75298;BME280;63896;45.990;18.688;2023-11-21T03:54:43;100243.06;;;6.78;100.00
75298;BME280;63896;45.990;18.688;2023-11-21T03:57:46;100254.59;;;6.77;100.00
75298;BME280;63896;45.990;18.688;2023-11-21T04:00:48;100273.88;;;6.77;100.00
75298;BME280;63896;45.990;18.688;2023-11-21T04:03:51;100287.47;;;6.74;100.00
75298;BME280;63896;45.990;18.688;2023-11-21T04:06:54;100294.97;;;6.77;100.00
75298;BME280;63896;45.990;18.688;2023-11-21T04:09:57;100300.88;;;6.79;100.00
75298;BME280;63896;45.990;18.688;2023-11-21T04:13:00;100299.28;;;6.85;100.00
75298;BME280;63896;45.990;18.688;2023-11-21T04:16:03;100289.13;;;6.82;100.00
75298;BME280;63896;45.990;18.688;2023-11-21T04:19:05;100298.72;;;6.89;100.00
75298;BME280;63896;45.990;18.688;2023-11-21T04:22:08;100297.56;;;6.98;100.00
75298;BME280;63896;45.990;18.688;2023-11-21T04:25:12;100302.84;;;6.98;100.00
75298;BME280;63896;45.990;18.688;2023-11-21T04:28:15;100304.28;;;7.01;100.00
75298;BME280;63896;45.990;18.688;2023-11-21T04:31:18;100314.50;;;7.10;100.00
75298;BME280;63896;45.990;18.688;2023-11-21T04:34:21;100297.63;;;7.11;100.00
75298;BME280;63896;45.990;18.688;2023-11-21T04:37:24;100304.97;;;7.16;100.00
75298;BME280;63896;45.990;18.688;2023-11-21T04:40:27;100307.06;;;7.27;100.00
75298;BME280;63896;45.990;18.688;2023-11-21T04:43:29;100300.06;;;7.41;100.00
75298;BME280;63896;45.990;18.688;2023-11-21T04:46:32;100300.47;;;7.44;100.00
75298;BME280;63896;45.990;18.688;2023-11-21T04:49:35;100295.81;;;7.46;100.00
75298;BME280;63896;45.990;18.688;2023-11-21T04:52:38;100298.09;;;7.56;100.00
75298;BME280;63896;45.990;18.688;2023-11-21T04:55:41;100314.75;;;7.56;100.00
75298;BME280;63896;45.990;18.688;2023-11-21T04:58:44;100310.72;;;7.60;100.00
75298;BME280;63896;45.990;18.688;2023-11-21T05:01:46;100309.06;;;7.59;100.00
75298;BME280;63896;45.990;18.688;2023-11-21T05:04:52;100318.22;;;7.63;100.00
75298;BME280;63896;45.990;18.688;2023-11-21T05:07:55;100310.31;;;7.63;100.00
75298;BME280;63896;45.990;18.688;2023-11-21T05:10:58;100307.44;;;7.65;100.00
75298;BME280;63896;45.990;18.688;2023-11-21T05:14:01;100318.84;;;7.65;100.00
75298;BME280;63896;45.990;18.688;2023-11-21T05:17:04;100321.28;;;7.67;100.00
75298;BME280;63896;45.990;18.688;2023-11-21T05:20:07;100329.41;;;7.65;100.00
75298;BME280;63896;45.990;18.688;2023-11-21T05:23:12;100328.41;;;7.66;100.00
75298;BME280;63896;45.990;18.688;2023-11-21T05:26:15;100312.19;;;7.76;100.00
75298;BME280;63896;45.990;18.688;2023-11-21T05:29:17;100308.94;;;7.74;100.00
75298;BME280;63896;45.990;18.688;2023-11-21T05:32:20;100307.91;;;7.75;100.00
75298;BME280;63896;45.990;18.688;2023-11-21T05:35:23;100307.28;;;7.73;100.00
75298;BME280;63896;45.990;18.688;2023-11-21T05:38:26;100311.97;;;7.78;100.00
75298;BME280;63896;45.990;18.688;2023-11-21T05:41:28;100310.16;;;7.78;100.00
75298;BME280;63896;45.990;18.688;2023-11-21T05:44:31;100314.44;;;7.79;100.00
75298;BME280;63896;45.990;18.688;2023-11-21T05:47:35;100322.75;;;7.76;100.00
75298;BME280;63896;45.990;18.688;2023-11-21T05:50:38;100334.31;;;7.75;100.00
75298;BME280;63896;45.990;18.688;2023-11-21T05:53:41;100332.28;;;7.77;100.00
75298;BME280;63896;45.990;18.688;2023-11-21T05:56:43;100339.03;;;7.80;100.00
75298;BME280;63896;45.990;18.688;2023-11-21T05:59:46;100345.72;;;7.76;100.00
75298;BME280;63896;45.990;18.688;2023-11-21T06:02:49;100353.84;;;7.81;100.00
75298;BME280;63896;45.990;18.688;2023-11-21T06:05:59;100358.75;;;7.84;100.00
75298;BME280;63896;45.990;18.688;2023-11-21T06:09:02;100371.16;;;7.90;100.00
75298;BME280;63896;45.990;18.688;2023-11-21T06:12:06;100385.75;;;7.86;100.00
75298;BME280;63896;45.990;18.688;2023-11-21T06:15:10;100380.66;;;7.84;100.00
75298;BME280;63896;45.990;18.688;2023-11-21T06:18:16;100385.34;;;7.82;100.00
75298;BME280;63896;45.990;18.688;2023-11-21T06:21:21;100392.25;;;7.83;100.00
75298;BME280;63896;45.990;18.688;2023-11-21T06:24:24;100401.88;;;7.97;100.00
75298;BME280;63896;45.990;18.688;2023-11-21T06:27:27;100406.50;;;7.89;100.00
75298;BME280;63896;45.990;18.688;2023-11-21T06:30:30;100410.34;;;7.86;100.00
75298;BME280;63896;45.990;18.688;2023-11-21T06:33:32;100415.22;;;7.83;100.00
75298;BME280;63896;45.990;18.688;2023-11-21T06:36:35;100407.91;;;7.85;100.00
75298;BME280;63896;45.990;18.688;2023-11-21T06:39:38;100412.59;;;7.89;100.00
75298;BME280;63896;45.990;18.688;2023-11-21T06:42:41;100414.03;;;7.92;100.00
75298;BME280;63896;45.990;18.688;2023-11-21T06:45:44;100405.91;;;7.93;100.00
75298;BME280;63896;45.990;18.688;2023-11-21T06:48:46;100407.94;;;7.91;100.00
75298;BME280;63896;45.990;18.688;2023-11-21T06:51:51;100395.34;;;7.93;100.00
75298;BME280;63896;45.990;18.688;2023-11-21T06:54:54;100392.13;;;7.98;100.00
75298;BME280;63896;45.990;18.688;2023-11-21T06:57:57;100386.28;;;8.09;100.00
75298;BME280;63896;45.990;18.688;2023-11-21T07:01:00;100377.13;;;8.11;100.00
75298;BME280;63896;45.990;18.688;2023-11-21T07:04:06;100381.81;;;8.16;100.00
75298;BME280;63896;45.990;18.688;2023-11-21T07:07:09;100381.81;;;8.09;100.00
75298;BME280;63896;45.990;18.688;2023-11-21T07:10:12;100391.38;;;8.10;100.00
75298;BME280;63896;45.990;18.688;2023-11-21T07:13:15;100390.31;;;8.05;100.00
75298;BME280;63896;45.990;18.688;2023-11-21T07:16:21;100398.88;;;8.07;100.00
75298;BME280;63896;45.990;18.688;2023-11-21T07:19:29;100392.56;;;8.08;100.00
75298;BME280;63896;45.990;18.688;2023-11-21T07:22:32;100392.78;;;8.06;100.00
75298;BME280;63896;45.990;18.688;2023-11-21T07:25:37;100386.28;;;8.09;100.00
75298;BME280;63896;45.990;18.688;2023-11-21T07:28:40;100388.72;;;8.10;100.00
75298;BME280;63896;45.990;18.688;2023-11-21T07:31:43;100393.19;;;8.10;100.00
75298;BME280;63896;45.990;18.688;2023-11-21T07:34:46;100397.66;;;8.16;100.00
75298;BME280;63896;45.990;18.688;2023-11-21T07:37:49;100398.91;;;8.20;100.00
75298;BME280;63896;45.990;18.688;2023-11-21T07:40:52;100408.25;;;8.16;100.00
75298;BME280;63896;45.990;18.688;2023-11-21T07:43:55;100409.06;;;8.17;100.00
75298;BME280;63896;45.990;18.688;2023-11-21T07:46:58;100416.81;;;8.18;100.00
75298;BME280;63896;45.990;18.688;2023-11-21T07:50:03;100398.31;;;8.25;100.00
75298;BME280;63896;45.990;18.688;2023-11-21T07:53:06;100378.22;;;8.30;100.00
75298;BME280;63896;45.990;18.688;2023-11-21T07:56:09;100364.16;;;8.23;100.00
75298;BME280;63896;45.990;18.688;2023-11-21T07:59:12;100363.72;;;8.20;100.00
75298;BME280;63896;45.990;18.688;2023-11-21T08:02:16;100366.19;;;8.14;100.00
75298;BME280;63896;45.990;18.688;2023-11-21T08:05:20;100360.25;;;8.12;100.00
75298;BME280;63896;45.990;18.688;2023-11-21T08:08:33;100362.72;;;8.14;100.00
75298;BME280;63896;45.990;18.688;2023-11-21T08:11:36;100357.44;;;8.21;100.00
75298;BME280;63896;45.990;18.688;2023-11-21T08:14:41;100339.59;;;8.29;100.00
75298;BME280;63896;45.990;18.688;2023-11-21T08:17:44;100329.41;;;8.26;100.00
75298;BME280;63896;45.990;18.688;2023-11-21T08:20:47;100334.06;;;8.24;100.00
75298;BME280;63896;45.990;18.688;2023-11-21T08:23:50;100331.84;;;8.21;100.00
75298;BME280;63896;45.990;18.688;2023-11-21T08:26:56;100332.66;;;8.22;100.00
75298;BME280;63896;45.990;18.688;2023-11-21T08:30:02;100332.28;;;8.31;100.00
75298;BME280;63896;45.990;18.688;2023-11-21T08:33:05;100339.97;;;8.26;100.00
75298;BME280;63896;45.990;18.688;2023-11-21T08:36:09;100343.41;;;8.27;100.00
75298;BME280;63896;45.990;18.688;2023-11-21T08:39:12;100336.38;;;8.34;100.00
75298;BME280;63896;45.990;18.688;2023-11-21T08:42:15;100339.63;;;8.36;100.00
75298;BME280;63896;45.990;18.688;2023-11-21T08:45:19;100341.66;;;8.40;100.00
75298;BME280;63896;45.990;18.688;2023-11-21T08:48:22;100342.66;;;8.39;100.00
75298;BME280;63896;45.990;18.688;2023-11-21T08:51:25;100342.88;;;8.51;100.00
75298;BME280;63896;45.990;18.688;2023-11-21T08:54:28;100341.88;;;8.52;100.00
75298;BME280;63896;45.990;18.688;2023-11-21T08:57:30;100327.44;;;8.48;100.00
75298;BME280;63896;45.990;18.688;2023-11-21T09:00:33;100325.59;;;8.48;100.00
75298;BME280;63896;45.990;18.688;2023-11-21T09:03:36;100324.78;;;8.48;100.00
75298;BME280;63896;45.990;18.688;2023-11-21T09:06:40;100306.69;;;8.58;100.00
75298;BME280;63896;45.990;18.688;2023-11-21T09:09:42;100316.66;;;8.49;100.00
75298;BME280;63896;45.990;18.688;2023-11-21T09:12:45;100322.34;;;8.46;100.00
75298;BME280;63896;45.990;18.688;2023-11-21T09:15:48;100318.69;;;8.54;100.00
75298;BME280;63896;45.990;18.688;2023-11-21T09:18:58;100312.75;;;8.39;100.00
75298;BME280;63896;45.990;18.688;2023-11-21T09:22:04;100307.47;;;8.39;100.00
75298;BME280;63896;45.990;18.688;2023-11-21T09:25:10;100307.28;;;8.40;100.00
75298;BME280;63896;45.990;18.688;2023-11-21T09:28:13;100298.53;;;8.46;100.00
75298;BME280;63896;45.990;18.688;2023-11-21T09:31:16;100293.69;;;8.56;100.00
75298;BME280;63896;45.990;18.688;2023-11-21T09:34:19;100286.13;;;8.53;100.00
75298;BME280;63896;45.990;18.688;2023-11-21T09:37:23;100276.19;;;8.49;100.00
75298;BME280;63896;45.990;18.688;2023-11-21T09:40:25;100276.38;;;8.41;100.00
75298;BME280;63896;45.990;18.688;2023-11-21T09:43:30;100272.31;;;8.45;100.00
75298;BME280;63896;45.990;18.688;2023-11-21T09:46:35;100262.13;;;8.42;100.00
75298;BME280;63896;45.990;18.688;2023-11-21T09:49:47;100259.09;;;8.51;100.00
75298;BME280;63896;45.990;18.688;2023-11-21T09:53:25;100268.84;;;8.51;100.00
75298;BME280;63896;45.990;18.688;2023-11-21T09:56:32;100268.84;;;8.44;100.00
75298;BME280;63896;45.990;18.688;2023-11-21T09:59:36;100253.81;;;8.51;100.00
75298;BME280;63896;45.990;18.688;2023-11-21T10:02:40;100251.56;;;8.48;100.00
75298;BME280;63896;45.990;18.688;2023-11-21T10:05:44;100253.81;;;8.51;100.00
75298;BME280;63896;45.990;18.688;2023-11-21T10:08:49;100256.25;;;8.46;100.00
75298;BME280;63896;45.990;18.688;2023-11-21T10:11:58;100251.38;;;8.56;100.00
75298;BME280;63896;45.990;18.688;2023-11-21T10:15:03;100248.91;;;8.61;100.00
75298;BME280;63896;45.990;18.688;2023-11-21T10:18:10;100246.66;;;8.65;100.00
75298;BME280;63896;45.990;18.688;2023-11-21T10:21:14;100235.31;;;8.65;100.00
75298;BME280;63896;45.990;18.688;2023-11-21T10:24:20;100236.50;;;8.62;100.00
75298;BME280;63896;45.990;18.688;2023-11-21T10:27:26;100236.72;;;8.54;100.00
75298;BME280;63896;45.990;18.688;2023-11-21T10:30:34;100227.13;;;8.66;100.00
75298;BME280;63896;45.990;18.688;2023-11-21T10:33:40;100241.00;;;8.55;100.00
75298;BME280;63896;45.990;18.688;2023-11-21T10:36:46;100244.88;;;8.52;100.00
75298;BME280;63896;45.990;18.688;2023-11-21T10:39:49;100244.03;;;8.52;100.00
75298;BME280;63896;45.990;18.688;2023-11-21T10:42:52;100237.53;;;8.61;100.00
75298;BME280;63896;45.990;18.688;2023-11-21T10:45:57;100239.75;;;8.57;100.00
75298;BME280;63896;45.990;18.688;2023-11-21T10:49:03;100234.91;;;8.61;100.00
75298;BME280;63896;45.990;18.688;2023-11-21T10:52:06;100244.47;;;8.49;100.00
75298;BME280;63896;45.990;18.688;2023-11-21T10:55:19;100234.47;;;8.51;100.00
75298;BME280;63896;45.990;18.688;2023-11-21T10:58:24;100234.88;;;8.54;100.00
75298;BME280;63896;45.990;18.688;2023-11-21T11:01:28;100226.13;;;8.54;100.00
75298;BME280;63896;45.990;18.688;2023-11-21T11:04:33;100223.09;;;8.50;100.00
75298;BME280;63896;45.990;18.688;2023-11-21T11:07:42;100223.91;;;8.51;100.00
75298;BME280;63896;45.990;18.688;2023-11-21T11:10:46;100220.44;;;8.50;100.00
75298;BME280;63896;45.990;18.688;2023-11-21T11:13:55;100219.63;;;8.50;100.00
75298;BME280;63896;45.990;18.688;2023-11-21T11:16:59;100216.97;;;8.50;100.00
75298;BME280;63896;45.990;18.688;2023-11-21T11:20:05;100213.34;;;8.44;100.00
75298;BME280;63896;45.990;18.688;2023-11-21T11:37:01;100206.22;;;8.38;100.00
75298;BME280;63896;45.990;18.688;2023-11-21T11:40:06;100200.53;;;8.48;100.00
75298;BME280;63896;45.990;18.688;2023-11-21T11:43:09;100197.88;;;8.48;100.00
75298;BME280;63896;45.990;18.688;2023-11-21T11:46:12;100191.78;;;8.47;100.00
75298;BME280;63896;45.990;18.688;2023-11-21T11:49:27;100189.94;;;8.22;100.00
75298;BME280;63896;45.990;18.688;2023-11-21T11:52:44;100192.78;;;8.20;100.00
75298;BME280;63896;45.990;18.688;2023-11-21T11:55:58;100191.13;;;8.19;100.00
75298;BME280;63896;45.990;18.688;2023-11-21T11:59:20;100183.66;;;8.29;100.00
75298;BME280;63896;45.990;18.688;2023-11-21T12:02:23;100184.03;;;8.26;100.00
75298;BME280;63896;45.990;18.688;2023-11-21T12:05:27;100176.50;;;8.23;100.00
75298;BME280;63896;45.990;18.688;2023-11-21T12:08:38;100176.72;;;8.15;100.00
75298;BME280;63896;45.990;18.688;2023-11-21T12:11:41;100170.22;;;8.18;100.00
75298;BME280;63896;45.990;18.688;2023-11-21T12:14:44;100174.47;;;8.25;100.00
75298;BME280;63896;45.990;18.688;2023-11-21T12:17:49;100173.88;;;8.17;100.00
75298;BME280;63896;45.990;18.688;2023-11-21T12:20:51;100171.66;;;8.13;100.00
75298;BME280;63896;45.990;18.688;2023-11-21T12:23:54;100169.81;;;8.14;100.00
75298;BME280;63896;45.990;18.688;2023-11-21T12:26:57;100170.00;;;8.19;100.00
75298;BME280;63896;45.990;18.688;2023-11-21T12:30:03;100166.34;;;8.27;100.00
75298;BME280;63896;45.990;18.688;2023-11-21T12:33:24;100167.97;;;8.28;100.00
75298;BME280;63896;45.990;18.688;2023-11-21T12:36:35;100164.13;;;8.30;100.00
75298;BME280;63896;45.990;18.688;2023-11-21T12:39:38;100158.66;;;8.32;100.00
75298;BME280;63896;45.990;18.688;2023-11-21T12:42:42;100155.00;;;8.33;100.00
75298;BME280;63896;45.990;18.688;2023-11-21T12:45:45;100155.97;;;8.38;100.00
75298;BME280;63896;45.990;18.688;2023-11-21T12:48:48;100159.84;;;8.42;100.00
75298;BME280;63896;45.990;18.688;2023-11-21T12:51:51;100151.94;;;8.49;100.00
75298;BME280;63896;45.990;18.688;2023-11-21T12:54:56;100161.66;;;8.42;100.00
75298;BME280;63896;45.990;18.688;2023-11-21T12:58:01;100155.78;;;8.46;100.00
75298;BME280;63896;45.990;18.688;2023-11-21T13:01:16;100157.81;;;8.44;100.00
75298;BME280;63896;45.990;18.688;2023-11-21T13:04:30;100141.75;;;8.39;100.00
75298;BME280;63896;45.990;18.688;2023-11-21T13:07:44;100143.16;;;8.42;100.00
75298;BME280;63896;45.990;18.688;2023-11-21T13:10:52;100145.81;;;8.42;100.00
75298;BME280;63896;45.990;18.688;2023-11-21T13:14:28;100143.78;;;8.50;100.00
75298;BME280;63896;45.990;18.688;2023-11-21T13:21:31;100154.38;;;8.44;100.00
75298;BME280;63896;45.990;18.688;2023-11-21T13:24:36;100140.31;;;8.50;100.00
75298;BME280;63896;45.990;18.688;2023-11-21T13:27:39;100150.31;;;8.41;100.00
75298;BME280;63896;45.990;18.688;2023-11-21T13:30:43;100150.88;;;8.50;100.00
75298;BME280;63896;45.990;18.688;2023-11-21T13:33:48;100147.25;;;8.44;100.00
75298;BME280;63896;45.990;18.688;2023-11-21T13:36:59;100146.84;;;8.41;100.00
75298;BME280;63896;45.990;18.688;2023-11-21T13:40:03;100154.97;;;8.39;100.00
75298;BME280;63896;45.990;18.688;2023-11-21T13:43:17;100154.75;;;8.54;100.00
75298;BME280;63896;45.990;18.688;2023-11-21T13:46:24;100157.59;;;8.46;100.00
75298;BME280;63896;45.990;18.688;2023-11-21T13:49:27;100154.34;;;8.50;100.00
75298;BME280;63896;45.990;18.688;2023-11-21T13:52:34;100157.81;;;8.51;100.00
75298;BME280;63896;45.990;18.688;2023-11-21T13:55:38;100164.53;;;8.40;100.00
75298;BME280;63896;45.990;18.688;2023-11-21T13:58:42;100159.47;;;8.45;100.00
75298;BME280;63896;45.990;18.688;2023-11-21T14:02:08;100158.22;;;8.48;100.00
75298;BME280;63896;45.990;18.688;2023-11-21T14:05:30;100173.28;;;8.47;100.00
75298;BME280;63896;45.990;18.688;2023-11-21T14:08:34;100163.13;;;8.38;100.00
75298;BME280;63896;45.990;18.688;2023-11-21T14:11:37;100169.41;;;8.30;100.00
75298;BME280;63896;45.990;18.688;2023-11-21T14:14:49;100169.41;;;8.30;100.00
75298;BME280;63896;45.990;18.688;2023-11-21T14:17:52;100181.19;;;8.28;100.00
75298;BME280;63896;45.990;18.688;2023-11-21T14:20:54;100182.66;;;8.37;100.00
75298;BME280;63896;45.990;18.688;2023-11-21T14:23:57;100187.91;;;8.30;100.00
75298;BME280;63896;45.990;18.688;2023-11-21T14:27:00;100190.34;;;8.25;100.00
75298;BME280;63896;45.990;18.688;2023-11-21T14:30:03;100191.75;;;8.21;100.00
75298;BME280;63896;45.990;18.688;2023-11-21T14:33:08;100187.50;;;8.20;100.00
75298;BME280;63896;45.990;18.688;2023-11-21T14:36:13;100196.44;;;8.19;100.00
75298;BME280;63896;45.990;18.688;2023-11-21T14:39:19;100197.66;;;8.17;100.00
75298;BME280;63896;45.990;18.688;2023-11-21T14:42:31;100201.94;;;8.18;100.00
75298;BME280;63896;45.990;18.688;2023-11-21T14:45:36;100195.84;;;8.10;100.00
75298;BME280;63896;45.990;18.688;2023-11-21T14:48:39;100206.81;;;8.14;100.00
75298;BME280;63896;45.990;18.688;2023-11-21T14:51:51;100216.56;;;8.13;100.00
75298;BME280;63896;45.990;18.688;2023-11-21T14:55:05;100220.84;;;8.14;100.00
75298;BME280;63896;45.990;18.688;2023-11-21T14:58:27;100215.34;;;8.09;100.00
75298;BME280;63896;45.990;18.688;2023-11-21T15:01:31;100214.72;;;8.07;100.00
75298;BME280;63896;45.990;18.688;2023-11-21T15:04:53;100204.56;;;8.04;100.00
75298;BME280;63896;45.990;18.688;2023-11-21T15:08:04;100203.72;;;8.04;100.00
75298;BME280;63896;45.990;18.688;2023-11-21T15:11:24;100207.19;;;7.98;100.00
75298;BME280;63896;45.990;18.688;2023-11-21T15:14:32;100207.59;;;8.01;100.00
75298;BME280;63896;45.990;18.688;2023-11-21T15:17:38;100206.38;;;7.97;100.00
75298;BME280;63896;45.990;18.688;2023-11-21T15:20:42;100203.13;;;7.95;100.00
75298;BME280;63896;45.990;18.688;2023-11-21T15:23:45;100211.25;;;8.00;100.00
75298;BME280;63896;45.990;18.688;2023-11-21T15:26:48;100213.72;;;7.95;100.00
75298;BME280;63896;45.990;18.688;2023-11-21T15:29:52;100215.94;;;7.98;100.00
75298;BME280;63896;45.990;18.688;2023-11-21T15:32:56;100220.63;;;8.03;100.00
75298;BME280;63896;45.990;18.688;2023-11-21T15:35:58;100221.81;;;8.00;100.00
75298;BME280;63896;45.990;18.688;2023-11-21T15:39:01;100223.88;;;8.05;100.00
75298;BME280;63896;45.990;18.688;2023-11-21T15:42:04;100223.06;;;7.98;100.00
75298;BME280;63896;45.990;18.688;2023-11-21T15:45:10;100218.34;;;7.93;100.00
75298;BME280;63896;45.990;18.688;2023-11-21T15:48:13;100217.53;;;7.93;100.00
75298;BME280;63896;45.990;18.688;2023-11-21T15:51:18;100218.19;;;7.95;100.00
75298;BME280;63896;45.990;18.688;2023-11-21T15:54:22;100223.06;;;7.98;100.00
75298;BME280;63896;45.990;18.688;2023-11-21T15:57:27;100220.00;;;8.01;100.00
75298;BME280;63896;45.990;18.688;2023-11-21T16:00:30;100226.09;;;8.01;100.00
75298;BME280;63896;45.990;18.688;2023-11-21T16:03:33;100217.75;;;7.98;100.00
75298;BME280;63896;45.990;18.688;2023-11-21T16:06:36;100232.59;;;8.05;100.00
75298;BME280;63896;45.990;18.688;2023-11-21T16:09:41;100236.84;;;8.00;100.00
75298;BME280;63896;45.990;18.688;2023-11-21T16:12:45;100228.34;;;8.04;100.00